source: josm/trunk/test/data/mergelayers/Merged-cut-connect.gpx @ 14338

Last change on this file since 14338 was 14338, checked in by Don-vip, 15 months ago

fix #16755 - Cut overlapping GPX layers when merging (patch by Bjoeni, modified)

File size: 5.5 KB
Line 
1<?xml version='1.0' encoding='UTF-8'?>
2<gpx version="1.1" creator="JOSM GPX export" xmlns="http://www.topografix.com/GPX/1/1"
3    xmlns:xsi="http://www.w3.org/2001/XMLSchema-instance"
4    xsi:schemaLocation="http://www.topografix.com/GPX/1/1 http://www.topografix.com/GPX/1/1/gpx.xsd">
5  <metadata>
6    <bounds minlat="-44.6794593" minlon="168.9588303" maxlat="-44.6149174" maxlon="169.1237066"/>
7  </metadata>
8  <trk>
9    <trkseg>
10      <trkpt lat="-44.64903055828478" lon="168.9688660654368">
11        <time>2018-08-01T04:15:00.000Z</time>
12      </trkpt>
13      <trkpt lat="-44.627129349" lon="168.96766593933">
14        <time>2018-08-01T04:45:00.000Z</time>
15      </trkpt>
16    </trkseg>
17  </trk>
18  <trk>
19    <trkseg>
20      <trkpt lat="-44.67377988143" lon="169.10087551117">
21        <time>2018-08-01T01:15:00.000Z</time>
22      </trkpt>
23      <trkpt lat="-44.67574681965" lon="169.08905899514">
24        <time>2018-08-01T01:20:00.000Z</time>
25      </trkpt>
26    </trkseg>
27  </trk>
28  <trk>
29    <trkseg>
30      <trkpt lat="-44.67945926209" lon="169.08388386828">
31        <time>2018-08-01T01:30:00.000Z</time>
32      </trkpt>
33      <trkpt lat="-44.67193249915" lon="169.05767836406"/>
34      <trkpt lat="-44.67829447303" lon="169.03051544255">
35        <time>2018-08-01T02:30:00.000Z</time>
36      </trkpt>
37    </trkseg>
38  </trk>
39  <trk>
40    <trkseg>
41      <trkpt lat="-44.67601752425" lon="169.02167947454">
42        <time>2018-08-01T02:40:00.000Z</time>
43      </trkpt>
44      <trkpt lat="-44.67302186733" lon="169.01440310326">
45        <time>2018-08-01T02:50:00.000Z</time>
46      </trkpt>
47    </trkseg>
48  </trk>
49  <trk>
50    <trkseg>
51      <trkpt lat="-44.67206867129" lon="169.00865859961">
52        <time>2018-08-01T02:55:00.000Z</time>
53      </trkpt>
54      <trkpt lat="-44.6715239808" lon="168.98031904829">
55        <time>2018-08-01T03:15:00.000Z</time>
56      </trkpt>
57    </trkseg>
58  </trk>
59  <trk>
60    <trkseg>
61      <trkpt lat="-44.6716601539" lon="169.11454895015">
62        <time>2018-08-01T01:05:00.000Z</time>
63      </trkpt>
64      <trkpt lat="-44.67261335666" lon="169.10708109541">
65        <time>2018-08-01T01:10:00.000Z</time>
66      </trkpt>
67    </trkseg>
68  </trk>
69  <trk>
70    <trkseg>
71      <trkpt lat="-44.62679341842" lon="169.09608703937">
72        <time>2018-08-01T06:30:00.000Z</time>
73      </trkpt>
74      <trkpt lat="-44.64397805726" lon="169.10662502858">
75        <time>2018-08-01T07:30:00.000Z</time>
76      </trkpt>
77    </trkseg>
78  </trk>
79  <trk>
80    <trkseg>
81      <trkpt lat="-44.64903055828478" lon="168.9688660654368">
82        <time>2018-08-01T04:15:00.000Z</time>
83      </trkpt>
84    </trkseg>
85  </trk>
86  <trk>
87    <trkseg>
88      <trkpt lat="-44.627129349" lon="168.96766593933">
89        <time>2018-08-01T04:45:00.000Z</time>
90      </trkpt>
91      <trkpt lat="-44.61491742259" lon="168.97007025177">
92        <time>2018-08-01T04:45:00.000Z</time>
93      </trkpt>
94      <trkpt lat="-44.61710528856" lon="169.04603159064">
95        <time>2018-08-01T05:00:00.000Z</time>
96      </trkpt>
97    </trkseg>
98  </trk>
99  <trk>
100    <trkseg>
101      <trkpt lat="-44.61835546068" lon="169.08598813305">
102        <time>2018-08-01T06:00:00.000Z</time>
103      </trkpt>
104      <trkpt lat="-44.62322244297" lon="169.08944198935"/>
105      <trkpt lat="-44.62679341842" lon="169.09608703937">
106        <time>2018-08-01T06:30:00.000Z</time>
107      </trkpt>
108    </trkseg>
109  </trk>
110  <trk>
111    <trkseg>
112      <trkpt lat="-44.64397805726" lon="169.10662502858">
113        <time>2018-08-01T07:30:00.000Z</time>
114      </trkpt>
115      <trkpt lat="-44.65772210426" lon="169.10838136012">
116        <time>2018-08-01T08:00:00.000Z</time>
117      </trkpt>
118    </trkseg>
119  </trk>
120  <trk>
121    <trkseg>
122      <trkpt lat="-44.67719792038" lon="169.12370664597">
123        <time>2018-08-01T01:00:00.000Z</time>
124      </trkpt>
125      <trkpt lat="-44.6716601539" lon="169.11454895015">
126        <time>2018-08-01T01:05:00.000Z</time>
127      </trkpt>
128    </trkseg>
129  </trk>
130  <trk>
131    <trkseg>
132      <trkpt lat="-44.67261335666" lon="169.10708109541">
133        <time>2018-08-01T01:10:00.000Z</time>
134      </trkpt>
135      <trkpt lat="-44.67377988143" lon="169.10087551117">
136        <time>2018-08-01T01:15:00.000Z</time>
137      </trkpt>
138    </trkseg>
139  </trk>
140  <trk>
141    <trkseg>
142      <trkpt lat="-44.67829447303" lon="169.03051544255">
143        <time>2018-08-01T02:30:00.000Z</time>
144      </trkpt>
145      <trkpt lat="-44.67601752425" lon="169.02167947454">
146        <time>2018-08-01T02:40:00.000Z</time>
147      </trkpt>
148    </trkseg>
149  </trk>
150  <trk>
151    <trkseg>
152      <trkpt lat="-44.67302186733" lon="169.01440310326">
153        <time>2018-08-01T02:50:00.000Z</time>
154      </trkpt>
155      <trkpt lat="-44.67206867129" lon="169.00865859961">
156        <time>2018-08-01T02:55:00.000Z</time>
157      </trkpt>
158    </trkseg>
159  </trk>
160  <trk>
161    <trkseg>
162      <trkpt lat="-44.67574681965" lon="169.08905899514">
163        <time>2018-08-01T01:20:00.000Z</time>
164      </trkpt>
165      <trkpt lat="-44.67945926209" lon="169.08388386828">
166        <time>2018-08-01T01:30:00.000Z</time>
167      </trkpt>
168    </trkseg>
169  </trk>
170  <trk>
171    <trkseg>
172      <trkpt lat="-44.6715239808" lon="168.98031904829">
173        <time>2018-08-01T03:15:00.000Z</time>
174      </trkpt>
175      <trkpt lat="-44.677348434487726" lon="168.9702040298994">
176        <time>2018-08-01T03:30:00.000Z</time>
177      </trkpt>
178      <trkpt lat="-44.66921934791758" lon="168.96284277369952">
179        <time>2018-08-01T03:45:00.000Z</time>
180      </trkpt>
181      <trkpt lat="-44.659434880491546" lon="168.95883032510446">
182        <time>2018-08-01T04:00:00.000Z</time>
183      </trkpt>
184    </trkseg>
185  </trk>
186</gpx>
Note: See TracBrowser for help on using the repository browser.